createdAt,value
2019-05-14T00:00:02.557Z,45.97
2019-05-14T00:05:02.709Z,46.06
2019-05-14T00:10:03.275Z,46.14
2019-05-14T00:15:02.699Z,46.1
2019-05-14T00:20:09.721Z,46.15
2019-05-14T00:25:02.541Z,46.15
2019-05-14T00:30:03.004Z,46.27
2019-05-14T00:35:02.526Z,46.41
2019-05-14T00:40:02.158Z,46.57
2019-05-14T00:45:02.679Z,46.65
2019-05-14T00:50:03.210Z,46.68
2019-05-14T00:55:02.737Z,46.68
2019-05-14T01:00:03.286Z,46.74
2019-05-14T01:05:02.810Z,46.83
2019-05-14T01:10:03.373Z,46.83
2019-05-14T01:15:10.179Z,46.89
2019-05-14T01:20:03.266Z,46.95
2019-05-14T01:25:02.843Z,47.03
2019-05-14T01:30:03.390Z,47.03
2019-05-14T01:35:02.905Z,47.1
2019-05-14T01:40:03.452Z,47.14
2019-05-14T01:45:02.979Z,47.19
2019-05-14T01:50:02.512Z,47.32
2019-05-14T01:55:03.045Z,47.37
2019-05-14T02:00:02.572Z,47.45
2019-05-14T02:05:03.011Z,47.67
2019-05-14T02:10:02.466Z,47.8
2019-05-14T02:15:02.968Z,48.2
2019-05-14T02:20:02.571Z,48.32
2019-05-14T02:25:03.011Z,48.65
2019-05-14T02:30:02.534Z,48.93
2019-05-14T02:35:03.111Z,49.13
2019-05-14T02:40:02.640Z,49.1
2019-05-14T02:45:03.218Z,49.38
2019-05-14T02:50:02.809Z,49.42
2019-05-14T02:55:03.385Z,49.58
2019-05-14T03:00:02.872Z,49.61
2019-05-14T03:05:03.422Z,49.64
2019-05-14T03:10:02.206Z,49.76
2019-05-14T03:15:01.895Z,49.79
2019-05-14T03:20:03.446Z,49.81
2019-05-14T03:25:02.911Z,49.9
2019-05-14T03:30:03.411Z,49.97
2019-05-14T03:35:04.632Z,50.28
2019-05-14T03:40:03.385Z,50.41
2019-05-14T03:45:02.826Z,50.62
2019-05-14T03:50:03.312Z,50.63
2019-05-14T03:55:04.867Z,50.49
2019-05-14T04:00:02.553Z,50.5
2019-05-14T04:05:03.023Z,50.45
2019-05-14T04:10:02.538Z,50.36
2019-05-14T04:15:03.071Z,50.34
2019-05-14T04:20:02.587Z,50.33
2019-05-14T04:25:03.021Z,50.44
2019-05-14T04:30:03.315Z,50.49
2019-05-14T04:35:02.777Z,50.63
2019-05-14T04:40:03.327Z,50.5
2019-05-14T04:45:05.688Z,50.61
2019-05-14T04:50:02.582Z,50.63
2019-05-14T04:55:03.019Z,50.66
2019-05-14T05:00:02.580Z,50.61
2019-05-14T05:05:03.131Z,50.72
2019-05-14T05:10:02.585Z,53.04
2019-05-14T05:15:03.087Z,54.51
2019-05-14T05:20:02.581Z,55.23
2019-05-14T05:25:03.025Z,55.45
2019-05-14T05:30:02.466Z,57.62
2019-05-14T05:36:09.511Z,58.21
2019-05-14T05:40:03.104Z,57.46
2019-05-14T05:45:34.108Z,57.38
2019-05-14T05:50:02.571Z,57.49
2019-05-14T05:55:03.018Z,56.65
2019-05-14T06:00:02.556Z,56.71
2019-05-14T06:05:02.986Z,56.19
2019-05-14T06:10:02.820Z,56.69
2019-05-14T06:15:03.256Z,55.29
2019-05-14T06:20:02.845Z,55.82
2019-05-14T06:25:03.323Z,55.35
2019-05-14T06:30:02.786Z,54.73
2019-05-14T06:35:03.244Z,54.6
2019-05-14T06:40:02.737Z,54.66
2019-05-14T06:45:03.181Z,54.4
2019-05-14T06:50:02.701Z,54.17
2019-05-14T06:55:03.217Z,53.86
2019-05-14T07:00:02.771Z,53.95
2019-05-14T07:05:03.291Z,53.72
2019-05-14T07:10:02.835Z,53.74
2019-05-14T07:15:03.348Z,53.88
2019-05-14T07:20:02.872Z,53.39
2019-05-14T07:25:03.409Z,53.3
2019-05-14T07:30:02.864Z,53.02
2019-05-14T07:35:03.376Z,53.0
2019-05-14T07:40:02.902Z,52.63
2019-05-14T07:45:03.345Z,52.32
2019-05-14T07:50:10.055Z,51.75
2019-05-14T07:55:02.589Z,50.97
2019-05-14T08:00:03.198Z,50.71
2019-05-14T08:05:02.679Z,50.44
2019-05-14T08:10:03.205Z,50.09
2019-05-14T08:20:03.282Z,49.69
2019-05-14T08:25:02.714Z,49.43
2019-05-14T08:30:03.237Z,49.34
2019-05-14T08:35:02.764Z,49.34
2019-05-14T08:40:03.211Z,49.2
2019-05-14T08:45:04.799Z,49.0
2019-05-14T08:50:01.599Z,48.87
2019-05-14T08:55:09.371Z,48.67
2019-05-14T09:00:02.653Z,48.52
2019-05-14T09:05:04.723Z,48.64
2019-05-14T09:10:02.589Z,48.53
2019-05-14T09:15:02.233Z,48.06
2019-05-14T09:20:06.763Z,47.58
2019-05-14T09:25:02.777Z,47.37
2019-05-14T09:30:03.235Z,47.17
2019-05-14T09:35:02.752Z,46.98
2019-05-14T09:40:03.296Z,46.8
2019-05-14T09:45:02.833Z,46.63
2019-05-14T09:50:18.357Z,46.55
2019-05-14T09:55:02.694Z,46.06
2019-05-14T10:00:03.216Z,45.84
2019-05-14T10:05:02.642Z,45.47
2019-05-14T10:10:03.186Z,44.9
2019-05-14T10:15:02.716Z,44.88
2019-05-14T10:20:03.158Z,44.56
2019-05-14T10:25:02.645Z,44.1
2019-05-14T10:30:03.111Z,44.03
2019-05-14T10:35:02.634Z,43.34
2019-05-14T10:40:03.078Z,43.19
2019-05-14T10:45:02.609Z,42.6
2019-05-14T10:50:03.179Z,42.7
2019-05-14T10:55:02.678Z,41.79
2019-05-14T11:00:03.214Z,41.78
2019-05-14T11:05:02.736Z,41.23
2019-05-14T11:10:03.187Z,41.0
2019-05-14T11:15:02.698Z,41.06
2019-05-14T11:20:03.146Z,41.35
2019-05-14T11:27:12.412Z,40.81
2019-05-14T11:30:02.898Z,40.25
2019-05-14T11:35:03.386Z,40.59
2019-05-14T11:40:02.834Z,40.46
2019-05-14T11:45:03.446Z,38.57
2019-05-14T11:50:02.945Z,40.78
2019-05-14T11:55:02.453Z,40.05
2019-05-14T12:00:02.895Z,40.77
2019-05-14T12:05:03.478Z,41.86
2019-05-14T12:10:02.959Z,41.37
2019-05-14T12:15:03.530Z,40.99
2019-05-14T12:20:03.025Z,40.07
2019-05-14T12:25:02.547Z,41.43
2019-05-14T12:30:03.012Z,38.78
2019-05-14T12:36:09.768Z,39.16
2019-05-14T12:40:02.742Z,39.35
2019-05-14T12:45:03.221Z,38.87
2019-05-14T12:50:02.720Z,39.39
2019-05-14T12:55:03.164Z,39.87
2019-05-14T13:00:02.599Z,40.55
2019-05-14T13:05:03.126Z,39.37
2019-05-14T13:10:02.638Z,40.45
2019-05-14T13:15:03.189Z,36.62
2019-05-14T13:20:02.687Z,40.31
2019-05-14T13:25:03.154Z,38.51
2019-05-14T13:30:02.664Z,40.62
2019-05-14T13:35:02.303Z,39.43
2019-05-14T13:40:02.831Z,40.22
2019-05-14T13:45:03.327Z,41.56
2019-05-14T13:50:02.762Z,40.79
2019-05-14T13:55:03.249Z,34.12
2019-05-14T14:00:02.774Z,38.72
2019-05-14T14:05:03.308Z,37.92
2019-05-14T14:10:02.828Z,36.34
2019-05-14T14:15:03.256Z,38.47
2019-05-14T14:20:02.791Z,38.13
2019-05-14T14:25:03.383Z,36.54
2019-05-14T14:30:02.845Z,34.1
2019-05-14T14:35:03.365Z,32.72
2019-05-14T14:40:02.928Z,30.97
2019-05-14T14:45:03.510Z,29.62
2019-05-14T14:50:03.019Z,30.16
2019-05-14T14:55:02.435Z,30.38
2019-05-14T15:00:02.947Z,29.81
2019-05-14T15:05:08.674Z,30.19
2019-05-14T15:10:02.939Z,30.39
2019-05-14T15:15:03.484Z,30.64
2019-05-14T15:20:03.009Z,30.75
2019-05-14T15:25:02.533Z,30.99
2019-05-14T15:30:02.982Z,30.75
2019-05-14T15:35:02.472Z,31.47
2019-05-14T15:40:04.163Z,31.72
2019-05-14T15:45:02.891Z,31.78
2019-05-14T15:50:03.426Z,32.09
2019-05-14T15:55:02.910Z,32.23
2019-05-14T16:00:03.489Z,31.92
2019-05-14T16:05:02.972Z,32.18
2019-05-14T16:10:02.494Z,32.35
2019-05-14T16:15:03.034Z,32.36
2019-05-14T16:20:02.591Z,32.76
2019-05-14T16:25:03.116Z,32.65
2019-05-14T16:30:02.676Z,32.6
2019-05-14T16:35:03.194Z,33.01
2019-05-14T16:40:02.695Z,33.11
2019-05-14T16:45:03.234Z,33.06
2019-05-14T16:50:02.784Z,33.04
2019-05-14T16:55:20.459Z,33.01
2019-05-14T17:00:03.147Z,33.44
2019-05-14T17:05:02.649Z,33.64
2019-05-14T17:10:03.205Z,33.82
2019-05-14T17:15:02.728Z,33.8
2019-05-14T17:20:03.278Z,33.81
2019-05-14T17:25:02.786Z,33.84
2019-05-14T17:30:03.338Z,34.0
2019-05-14T17:35:02.856Z,34.36
2019-05-14T17:40:03.401Z,34.28
2019-05-14T17:45:02.934Z,34.37
2019-05-14T17:50:03.480Z,34.87
2019-05-14T17:55:02.978Z,35.27
2019-05-14T18:00:02.512Z,35.33
2019-05-14T18:05:02.939Z,35.56
2019-05-14T18:10:03.403Z,35.74
2019-05-14T18:15:15.217Z,35.95
2019-05-14T18:20:02.754Z,36.14
2019-05-14T18:25:03.294Z,36.26
2019-05-14T18:30:02.819Z,36.49
2019-05-14T18:35:03.358Z,36.7
2019-05-14T18:40:02.877Z,36.92
2019-05-14T18:45:03.329Z,37.2
2019-05-14T18:50:02.848Z,37.49
2019-05-14T18:55:03.397Z,37.74
2019-05-14T19:00:02.916Z,37.85
2019-05-14T19:05:03.386Z,38.28
2019-05-14T19:10:02.832Z,38.41
2019-05-14T19:15:03.317Z,38.75
2019-05-14T19:20:02.837Z,38.94
2019-05-14T19:25:02.576Z,39.22
2019-05-14T19:30:19.150Z,39.46
2019-05-14T19:35:02.834Z,39.71
2019-05-14T19:40:03.392Z,39.88
2019-05-14T19:45:02.915Z,40.14
2019-05-14T19:51:08.390Z,40.39
2019-05-14T19:55:02.881Z,40.63
2019-05-14T20:00:03.416Z,40.78
2019-05-14T20:05:05.492Z,41.03
2019-05-14T20:10:03.179Z,41.17
2019-05-14T20:15:02.717Z,41.39
2019-05-14T20:20:03.245Z,41.47
2019-05-14T20:25:02.744Z,41.71
2019-05-14T20:30:03.736Z,41.82
2019-05-14T20:35:03.243Z,42.01
2019-05-14T20:40:01.888Z,42.07
2019-05-14T20:45:03.517Z,42.27
2019-05-14T20:50:03.058Z,42.33
2019-05-14T20:55:02.554Z,42.52
2019-05-14T21:00:03.130Z,42.63
2019-05-14T21:05:04.890Z,42.82
2019-05-14T21:10:02.901Z,42.93
2019-05-14T21:15:03.447Z,43.11
2019-05-14T21:20:02.956Z,43.21
2019-05-14T21:25:02.441Z,43.29
2019-05-14T21:30:03.024Z,43.39
2019-05-14T21:35:01.735Z,43.62
2019-05-14T21:40:03.332Z,43.73
2019-05-14T21:45:02.916Z,43.92
2019-05-14T21:50:03.510Z,44.02
2019-05-14T21:55:03.124Z,44.15
2019-05-14T22:00:02.618Z,44.25
2019-05-14T22:05:03.167Z,44.44
2019-05-14T22:10:02.701Z,44.73
2019-05-14T22:15:03.222Z,44.84
2019-05-14T22:20:02.755Z,45.02
2019-05-14T22:25:03.305Z,45.08
2019-05-14T22:30:02.771Z,45.26
2019-05-14T22:35:03.257Z,45.42
2019-05-14T22:40:02.798Z,45.37
2019-05-14T22:45:03.332Z,45.44
2019-05-14T22:50:02.852Z,45.51
2019-05-14T22:55:03.388Z,45.52
2019-05-14T23:00:07.554Z,45.48
2019-05-14T23:05:03.151Z,45.57
2019-05-14T23:10:02.672Z,45.61
2019-05-14T23:15:03.223Z,45.66
2019-05-14T23:20:02.743Z,45.78
2019-05-14T23:25:03.303Z,45.68
2019-05-14T23:30:02.803Z,45.68
2019-05-14T23:35:03.363Z,45.7
2019-05-14T23:40:02.891Z,45.73
2019-05-14T23:45:03.380Z,45.7
2019-05-14T23:50:02.947Z,45.75
2019-05-14T23:55:03.493Z,45.7
